Terminal Aerodrome Forecast
Issued by NWS Pocatello, ID

Home | Current Version | Previous Version | Text Only | Print | Product List | Glossary On
Versions: 1 2 3 4 5 6 7 8 9 10 11 12 13 14
000
FTUS45 KPIH 251127
TAFPIH
TAF
KPIH 251127Z 2512/2612 23013KT P6SM SCT060 SCT100
     FM252000 25009KT P6SM VCTS SCT020 BKN040CB OVC100
     FM260200 24012G22KT 5SM -RA BR SCT010 OVC020=

USA.gov is the U.S. government's official web portal to all federal, state and local government web resources and services.